Aeroporto :
LOGIN :

Iscrizione | Disclaimer

   EN    FR    IT 

 










Sommario :    VFR   VFR Marginale   IFR   IFR Intensivo   IFR Molto Intensivo
Visibilità : 
Base nubi : 
>= 8 km
>= 3000ft
5 / 8 km
1000 / 3000 ft
1500m / 5 km
500 / 1000 ft
800 / 1500m
200 / 500 ft
< 800m
< 200 ft
Simboli :   Temporali  Nebbia  Neve Forte  Precipitazioni Forti  Vento > 20 kt
SIGMETs :   Varie  Temporali  Ghiacco  Turbolenza  Onda orograficha  Ceneri Vulcaniche






- Altitudine del aeroporto : 913 ft


LFSX - Luxeuil

ULTIMO METAR :
  • 261830Z AUTO 02008KT 340V060 CAVOK 20/07 Q1030

METARs OBSOLETI :
  • 261800Z AUTO 02007KT 340V050 CAVOK 21/07 Q1030
  • 261730Z AUTO 02009KT 340V060 CAVOK 22/08 Q1030
  • 261700Z AUTO 01010KT 320V050 CAVOK 22/08 Q1030
  • 261630Z AUTO 01010KT 350V050 CAVOK 23/07 Q1030
  • 261600Z AUTO 36010KT 330V040 CAVOK 23/08 Q1030

TAF TAF LFSX
Valido dal 26 a 15 ore il 27 a 15 ore UTC


261400Z 2615/2715 02005G15KT CAVOK



MetMap, La meteo Aeronautica in un colpo d'occhio ! - Copyright ORBIFLY Dicembre 2007 - Disclaimer

ORBIFLY MET'MAP TEAM :

Programmazione e sviluppo : Alexandra Zaïnal
Concezione : Baudouin d'Aumeries
Aiuto per la programmazione : Marc-Olivier Méhu
Supporto tecnico e logistico : Manuel Goepfert
Aiuto per la traduzione : Arnaldo La Scala

Contatto : metmap@orbifly.com




FONTI E CREDITI :

   NOAA